Cedarville, Illinois
Current Conditions -  °F | °C
As of 7:55 PM on Wednesday 26 Nov 2014 (Local Time) from KFEP Reporting Station
Overcast Overcast  
Wind Chill: 15°   Ceiling: 1300
Heat Index: 23°   Visibility: 7mi
Dew Point: 19°   Wind: 7mph
Humidity: 84%   Direction: 360°N
Pressure: 30.2"   Gusts: NA
Location:  42.38°N, 89.63°W
Report Text: KFEP 270155Z AUTO 36006KT 7SM OVC013 M05/M07 A3020 RMK AO2 T10491072
Loading
Personal Weather Stations






























Interactive Weather Map New forecast layout! Learn more

10-Day Weather Forecast

Advertisements
Track Severe Weather on mobile